Time;durP1;ratioP1;P1;durP2;ratioP2;P2;SDS_P1;SDS_P2;PMS_P1;PMS_P2;Temp;Humidity;BMP_temperature;BMP_pressure;BME280_temperature;BME280_humidity;BME280_pressure;Samples;Min_cycle;Max_cycle;Signal;HPM_P1;HPM_P2
2021/10/05 00:00:44;;;;;;;10.05;6.10;;;;;;;;;;4997095;28;20027;-53
2021/10/05 00:03:10;;;;;;;11.38;6.40;;;;;;;;;;5003418;28;20056;-54
2021/10/05 00:05:36;;;;;;;10.05;6.35;;;;;;;;;;4987809;28;20035;-54
2021/10/05 00:08:02;;;;;;;9.75;6.07;;;;;;;;;;4997187;28;20023;-54
2021/10/05 00:10:28;;;;;;;13.45;6.47;;;;;;;;;;5001782;28;20400;-54
2021/10/05 00:12:55;;;;;;;17.27;8.95;;;;;;;;;;4994555;28;20072;-54
2021/10/05 00:15:21;;;;;;;19.63;7.47;;;;;;;;;;5001033;28;20121;-54
2021/10/05 00:17:47;;;;;;;15.00;6.68;;;;;;;;;;4996844;28;20023;-54
2021/10/05 00:20:13;;;;;;;14.93;6.78;;;;;;;;;;4998373;28;20026;-54
2021/10/05 00:22:40;;;;;;;14.13;6.35;;;;;;;;;;4997649;28;20375;-54
2021/10/05 00:25:07;;;;;;;14.88;6.65;;;;;;;;;;4985787;28;20483;-54
2021/10/05 00:27:33;;;;;;;13.73;6.75;;;;;;;;;;5014810;28;20367;-55
2021/10/05 00:30:03;;;;;;;12.48;6.88;;;;;;;;;;5016071;28;20022;-55
2021/10/05 00:32:29;;;;;;;14.05;7.55;;;;;;;;;;4998705;28;20165;-54
2021/10/05 00:34:56;;;;;;;10.20;7.10;;;;;;;;;;5015415;28;20089;-55
2021/10/05 00:37:22;;;;;;;11.18;6.68;;;;;;;;;;5015859;28;20504;-55
2021/10/05 00:39:48;;;;;;;10.93;6.75;;;;;;;;;;5015712;28;20080;-56
2021/10/05 00:42:14;;;;;;;18.45;8.98;;;;;;;;;;5015619;28;20025;-55
2021/10/05 00:44:40;;;;;;;14.07;7.90;;;;;;;;;;5015904;28;20036;-55
2021/10/05 00:47:11;;;;;;;14.75;9.73;;;;;;;;;;5015517;28;20054;-55
2021/10/05 00:49:38;;;;;;;12.47;8.53;;;;;;;;;;5015722;28;20033;-54
2021/10/05 00:52:05;;;;;;;14.20;7.47;;;;;;;;;;5015295;28;20084;-55
2021/10/05 00:54:32;;;;;;;19.50;8.65;;;;;;;;;;5015578;28;20390;-55
2021/10/05 00:56:58;;;;;;;16.25;6.63;;;;;;;;;;5015494;28;20072;-55
2021/10/05 00:59:24;;;;;;;16.27;8.50;;;;;;;;;;5015222;28;20029;-55
2021/10/05 01:01:50;;;;;;;20.23;10.02;;;;;;;;;;5015331;28;20026;-55
2021/10/05 01:04:19;;;;;;;13.13;8.40;;;;;;;;;;5015103;28;20645;-55
2021/10/05 01:06:54;;;;;;;13.57;7.13;;;;;;;;;;5004672;28;20042;-55
2021/10/05 01:09:20;;;;;;;14.48;7.20;;;;;;;;;;4986131;28;20092;-53
2021/10/05 01:11:46;;;;;;;11.98;6.45;;;;;;;;;;4982920;28;20030;-54
2021/10/05 01:14:12;;;;;;;13.15;7.82;;;;;;;;;;4993501;28;20042;-55
2021/10/05 01:16:38;;;;;;;21.13;9.00;;;;;;;;;;4991593;28;20031;-56
2021/10/05 01:19:04;;;;;;;15.38;9.60;;;;;;;;;;4994385;28;20022;-55
2021/10/05 01:21:31;;;;;;;22.15;8.35;;;;;;;;;;4983244;28;20042;-54
2021/10/05 01:24:06;;;;;;;19.15;6.32;;;;;;;;;;4975820;28;20490;-55
2021/10/05 01:26:32;;;;;;;17.27;9.27;;;;;;;;;;4975830;28;20042;-53
2021/10/05 01:29:02;;;;;;;9.85;6.82;;;;;;;;;;4975635;28;20114;-54
2021/10/05 01:31:29;;;;;;;17.58;6.80;;;;;;;;;;4975562;28;20418;-54
2021/10/05 01:33:55;;;;;;;20.83;9.80;;;;;;;;;;4975445;28;20054;-55
2021/10/05 01:36:21;;;;;;;16.08;8.30;;;;;;;;;;4975725;28;20046;-54
2021/10/05 01:38:47;;;;;;;14.48;6.85;;;;;;;;;;4975416;28;20364;-55
2021/10/05 01:41:14;;;;;;;15.15;8.43;;;;;;;;;;4975532;28;20027;-54
2021/10/05 01:43:40;;;;;;;20.48;10.38;;;;;;;;;;4975575;28;20031;-55
2021/10/05 01:46:11;;;;;;;15.35;7.70;;;;;;;;;;4975435;28;20022;-55
2021/10/05 01:48:38;;;;;;;16.80;8.38;;;;;;;;;;4975271;28;20549;-55
2021/10/05 01:51:04;;;;;;;20.20;9.00;;;;;;;;;;4975511;28;20394;-55
2021/10/05 01:53:30;;;;;;;16.05;8.43;;;;;;;;;;4975174;28;20047;-55
2021/10/05 01:55:56;;;;;;;18.42;9.00;;;;;;;;;;4975132;28;20031;-53
2021/10/05 01:58:23;;;;;;;14.18;7.18;;;;;;;;;;4975284;28;20045;-55
2021/10/05 02:00:49;;;;;;;15.35;7.70;;;;;;;;;;4975260;28;20023;-56
2021/10/05 02:03:15;;;;;;;13.57;7.85;;;;;;;;;;4974935;28;20051;-55
2021/10/05 02:05:42;;;;;;;15.57;8.10;;;;;;;;;;4974834;28;20039;-55
2021/10/05 02:08:11;;;;;;;23.13;11.65;;;;;;;;;;4974948;28;20031;-54
2021/10/05 02:10:37;;;;;;;12.38;6.50;;;;;;;;;;4975184;28;20502;-54
2021/10/05 02:13:04;;;;;;;9.63;6.78;;;;;;;;;;4975005;28;20034;-55
2021/10/05 02:15:30;;;;;;;13.23;7.55;;;;;;;;;;4974805;28;20118;-55
2021/10/05 02:17:56;;;;;;;18.58;9.35;;;;;;;;;;4974945;28;20018;-55
2021/10/05 02:20:22;;;;;;;14.02;7.43;;;;;;;;;;4975066;28;20054;-55
2021/10/05 02:22:48;;;;;;;11.77;6.65;;;;;;;;;;4974818;28;20023;-55
2021/10/05 02:25:15;;;;;;;8.98;6.43;;;;;;;;;;4975124;28;20061;-55
2021/10/05 02:27:41;;;;;;;14.00;6.72;;;;;;;;;;4974810;28;20121;-55
2021/10/05 02:30:07;;;;;;;12.00;7.70;;;;;;;;;;4974740;28;20037;-55
2021/10/05 02:32:34;;;;;;;15.25;7.15;;;;;;;;;;4974743;28;20096;-54
2021/10/05 02:35:00;;;;;;;11.35;6.90;;;;;;;;;;4974495;28;20073;-54
2021/10/05 02:37:31;;;;;;;12.18;5.80;;;;;;;;;;4974751;28;20054;-54
2021/10/05 02:39:58;;;;;;;20.20;8.02;;;;;;;;;;4974743;28;20042;-54
2021/10/05 02:42:26;;;;;;;14.48;7.45;;;;;;;;;;4974660;28;20019;-55
2021/10/05 02:44:53;;;;;;;12.77;8.20;;;;;;;;;;4974619;28;20057;-54
2021/10/05 02:47:20;;;;;;;18.70;7.35;;;;;;;;;;4974414;28;20459;-56
2021/10/05 02:49:46;;;;;;;13.73;7.20;;;;;;;;;;4973818;28;20035;-54
2021/10/05 02:52:16;;;;;;;15.30;7.40;;;;;;;;;;4974421;28;20027;-54
2021/10/05 02:54:46;;;;;;;14.13;7.45;;;;;;;;;;4974576;28;20514;-56
2021/10/05 02:57:12;;;;;;;18.40;9.63;;;;;;;;;;4974451;28;20042;-55
2021/10/05 02:59:38;;;;;;;15.25;8.98;;;;;;;;;;4974538;28;20027;-55
2021/10/05 03:02:05;;;;;;;15.48;7.50;;;;;;;;;;4974543;28;20073;-55
2021/10/05 03:04:31;;;;;;;16.05;8.43;;;;;;;;;;4974265;28;20476;-55
2021/10/05 03:06:59;;;;;;;11.43;6.95;;;;;;;;;;4974672;28;20062;-56
2021/10/05 03:09:25;;;;;;;13.13;7.97;;;;;;;;;;4974729;28;20371;-55
2021/10/05 03:11:51;;;;;;;16.92;8.48;;;;;;;;;;4974527;28;20106;-56
2021/10/05 03:14:18;;;;;;;16.60;7.47;;;;;;;;;;4974497;28;20030;-55
2021/10/05 03:16:44;;;;;;;12.00;7.65;;;;;;;;;;4974347;28;20035;-55
2021/10/05 03:19:10;;;;;;;13.93;8.10;;;;;;;;;;4974107;28;20050;-55
2021/10/05 03:21:36;;;;;;;19.70;8.07;;;;;;;;;;4974427;28;20023;-55
2021/10/05 03:24:02;;;;;;;17.42;8.05;;;;;;;;;;4974440;28;20384;-55
2021/10/05 03:26:28;;;;;;;13.25;7.13;;;;;;;;;;4974353;28;20031;-55
2021/10/05 03:28:54;;;;;;;16.98;8.48;;;;;;;;;;4974359;28;20019;-55
2021/10/05 03:31:20;;;;;;;17.15;7.95;;;;;;;;;;4974358;28;20034;-55
2021/10/05 03:33:47;;;;;;;17.10;8.32;;;;;;;;;;4973924;28;20081;-56
2021/10/05 03:36:16;;;;;;;11.70;6.93;;;;;;;;;;4974040;28;20101;-55
2021/10/05 03:38:42;;;;;;;13.73;7.18;;;;;;;;;;4974135;28;20027;-55
2021/10/05 03:41:11;;;;;;;16.10;7.32;;;;;;;;;;4974019;28;20027;-55
2021/10/05 03:43:37;;;;;;;13.68;7.88;;;;;;;;;;4974116;28;20154;-56
2021/10/05 03:46:04;;;;;;;13.45;7.47;;;;;;;;;;4973714;28;20026;-55
2021/10/05 03:48:30;;;;;;;18.25;7.30;;;;;;;;;;4973929;28;20026;-55
2021/10/05 03:50:56;;;;;;;15.00;8.30;;;;;;;;;;4974004;28;20475;-56
2021/10/05 03:53:22;;;;;;;16.20;6.90;;;;;;;;;;4973830;28;20542;-55
2021/10/05 03:55:55;;;;;;;11.60;7.57;;;;;;;;;;4973955;28;20031;-56
2021/10/05 03:58:22;;;;;;;14.68;7.38;;;;;;;;;;4973835;28;20510;-56
2021/10/05 04:00:51;;;;;;;17.67;8.25;;;;;;;;;;4973764;28;20031;-56
2021/10/05 04:03:17;;;;;;;15.15;7.18;;;;;;;;;;4977372;28;20022;-56
2021/10/05 04:05:43;;;;;;;12.70;7.30;;;;;;;;;;4977498;28;20381;-54
2021/10/05 04:08:10;;;;;;;18.50;8.25;;;;;;;;;;4977501;28;20023;-56
2021/10/05 04:10:36;;;;;;;16.05;7.53;;;;;;;;;;4977407;28;20054;-55
2021/10/05 04:13:03;;;;;;;14.77;7.10;;;;;;;;;;4977202;28;20045;-57
2021/10/05 04:15:29;;;;;;;12.70;7.25;;;;;;;;;;4977018;28;20060;-56
2021/10/05 04:17:55;;;;;;;15.73;7.40;;;;;;;;;;4976789;28;20046;-55
2021/10/05 04:20:21;;;;;;;12.27;7.55;;;;;;;;;;4976899;28;20037;-55
2021/10/05 04:22:47;;;;;;;11.27;7.05;;;;;;;;;;4977359;28;20471;-56
2021/10/05 04:25:13;;;;;;;16.90;7.80;;;;;;;;;;4977271;28;20035;-55
2021/10/05 04:27:42;;;;;;;15.93;8.07;;;;;;;;;;4977175;28;20081;-55
2021/10/05 04:30:10;;;;;;;17.85;8.52;;;;;;;;;;4976926;28;20061;-56
2021/10/05 04:32:36;;;;;;;20.00;9.05;;;;;;;;;;4976758;28;20129;-55
2021/10/05 04:35:03;;;;;;;14.50;8.45;;;;;;;;;;4976580;28;20594;-55
2021/10/05 04:37:29;;;;;;;15.88;7.95;;;;;;;;;;4976723;28;20081;-55
2021/10/05 04:39:55;;;;;;;13.65;7.43;;;;;;;;;;4976704;28;20027;-55
2021/10/05 04:42:22;;;;;;;17.83;8.32;;;;;;;;;;4976676;28;20105;-56
2021/10/05 04:44:48;;;;;;;19.40;8.77;;;;;;;;;;4976715;28;20023;-55
2021/10/05 04:47:14;;;;;;;15.02;7.85;;;;;;;;;;4976561;28;20034;-55
2021/10/05 04:49:41;;;;;;;18.05;8.63;;;;;;;;;;4976856;28;20391;-56
2021/10/05 04:52:07;;;;;;;24.77;8.85;;;;;;;;;;4976738;28;20023;-56
2021/10/05 04:54:33;;;;;;;20.45;9.70;;;;;;;;;;4976450;28;20035;-57
2021/10/05 04:57:00;;;;;;;14.18;7.75;;;;;;;;;;4958956;28;20379;-55
2021/10/05 04:59:26;;;;;;;15.95;7.72;;;;;;;;;;4976494;28;20027;-56
2021/10/05 05:01:52;;;;;;;21.08;8.60;;;;;;;;;;4976271;28;20102;-57
2021/10/05 05:04:18;;;;;;;19.30;9.73;;;;;;;;;;4976057;28;20045;-57
2021/10/05 05:06:44;;;;;;;17.40;9.68;;;;;;;;;;4976085;28;20031;-54
2021/10/05 05:09:11;;;;;;;18.17;10.95;;;;;;;;;;4976334;28;20062;-55
2021/10/05 05:11:37;;;;;;;17.00;10.18;;;;;;;;;;4976120;28;20078;-56
2021/10/05 05:14:22;;;;;;;15.02;8.30;;;;;;;;;;4975384;28;20106;-51
2021/10/05 05:16:50;;;;;;;32.88;18.00;;;;;;;;;;4975903;28;20061;-50
2021/10/05 05:19:17;;;;;;;25.48;16.65;;;;;;;;;;4976158;28;20019;-51
2021/10/05 05:21:43;;;;;;;58.15;53.88;;;;;;;;;;4976206;28;20039;-50
2021/10/05 05:24:09;;;;;;;19.90;10.32;;;;;;;;;;4976196;28;20019;-52
2021/10/05 05:26:35;;;;;;;38.97;35.70;;;;;;;;;;4975995;28;20078;-49
2021/10/05 05:29:01;;;;;;;1999.90;999.90;;;;;;;;;;4975874;28;20423;-52
2021/10/05 05:31:27;;;;;;;1999.90;999.90;;;;;;;;;;4975916;28;20023;-50
2021/10/05 05:33:54;;;;;;;19.60;11.98;;;;;;;;;;4975742;28;20049;-50
2021/10/05 05:36:20;;;;;;;12.18;7.07;;;;;;;;;;4975746;28;20092;-50
2021/10/05 05:38:46;;;;;;;14.73;7.28;;;;;;;;;;4975567;28;20018;-49
2021/10/05 05:41:12;;;;;;;10.85;6.60;;;;;;;;;;4975717;28;20118;-50
2021/10/05 05:43:38;;;;;;;15.35;7.35;;;;;;;;;;4975637;28;20113;-50
2021/10/05 05:46:04;;;;;;;15.45;7.50;;;;;;;;;;4975347;28;20031;-49
2021/10/05 05:48:30;;;;;;;11.45;6.93;;;;;;;;;;4975461;28;20035;-48
2021/10/05 05:50:56;;;;;;;12.13;6.60;;;;;;;;;;4975725;28;20029;-51
2021/10/05 05:53:22;;;;;;;10.43;6.65;;;;;;;;;;4975554;28;20026;-49
2021/10/05 05:55:48;;;;;;;14.20;6.38;;;;;;;;;;4975470;28;20035;-53
2021/10/05 05:58:15;;;;;;;13.38;6.85;;;;;;;;;;4975464;28;20163;-49
2021/10/05 06:00:42;;;;;;;12.68;7.53;;;;;;;;;;4975323;28;20643;-51
2021/10/05 06:03:10;;;;;;;13.93;9.65;;;;;;;;;;4975019;28;20022;-50
2021/10/05 06:05:36;;;;;;;18.02;7.60;;;;;;;;;;4975201;28;20390;-49
2021/10/05 06:08:02;;;;;;;16.08;6.82;;;;;;;;;;4975361;28;20023;-50
2021/10/05 06:10:28;;;;;;;11.38;6.55;;;;;;;;;;4975032;28;20534;-49
2021/10/05 06:12:54;;;;;;;10.30;6.25;;;;;;;;;;4975007;28;20070;-50
2021/10/05 06:15:21;;;;;;;11.68;6.82;;;;;;;;;;4974931;28;20034;-47
2021/10/05 06:17:49;;;;;;;13.65;7.72;;;;;;;;;;4975139;28;20023;-50
2021/10/05 06:20:17;;;;;;;12.90;6.72;;;;;;;;;;4974918;28;20034;-52
2021/10/05 06:22:43;;;;;;;12.00;6.68;;;;;;;;;;4975036;28;20034;-49
2021/10/05 06:25:11;;;;;;;15.30;6.90;;;;;;;;;;4975004;28;20050;-49
2021/10/05 06:27:37;;;;;;;10.90;6.38;;;;;;;;;;4974862;28;20027;-52
2021/10/05 06:30:03;;;;;;;14.93;6.43;;;;;;;;;;4974890;28;20042;-49
2021/10/05 06:32:30;;;;;;;16.33;6.47;;;;;;;;;;4974836;28;20143;-48
2021/10/05 06:34:56;;;;;;;13.80;7.40;;;;;;;;;;4974624;28;20049;-48
2021/10/05 06:37:22;;;;;;;17.83;6.13;;;;;;;;;;4975073;28;20495;-48
2021/10/05 06:39:48;;;;;;;10.48;6.47;;;;;;;;;;4974622;28;20019;-52
2021/10/05 06:42:14;;;;;;;13.70;8.30;;;;;;;;;;4974893;28;20031;-49
2021/10/05 06:44:40;;;;;;;11.55;6.80;;;;;;;;;;4974809;28;20101;-49
2021/10/05 06:47:07;;;;;;;8.82;6.53;;;;;;;;;;4974713;28;20078;-48
2021/10/05 06:49:33;;;;;;;12.63;6.30;;;;;;;;;;4974667;28;20066;-49
2021/10/05 06:52:01;;;;;;;18.65;8.18;;;;;;;;;;4974899;28;20375;-53
2021/10/05 06:54:27;;;;;;;15.40;6.95;;;;;;;;;;4974358;28;20072;-48
2021/10/05 06:56:53;;;;;;;10.38;7.07;;;;;;;;;;4974523;28;20030;-50
2021/10/05 06:59:19;;;;;;;51.13;11.48;;;;;;;;;;4974599;28;20074;-50
2021/10/05 07:01:48;;;;;;;14.32;6.90;;;;;;;;;;4974452;28;20031;-48
2021/10/05 07:04:14;;;;;;;9.48;6.50;;;;;;;;;;4974414;28;20375;-53
2021/10/05 07:06:44;;;;;;;14.00;6.43;;;;;;;;;;4974699;28;20019;-53
2021/10/05 07:09:10;;;;;;;10.80;6.88;;;;;;;;;;4974551;28;20023;-49
2021/10/05 07:11:36;;;;;;;13.15;6.13;;;;;;;;;;4974576;28;20030;-57
2021/10/05 07:14:03;;;;;;;16.55;7.97;;;;;;;;;;4974301;28;20030;-48
2021/10/05 07:16:29;;;;;;;12.05;6.70;;;;;;;;;;4974290;28;20073;-48
2021/10/05 07:18:55;;;;;;;10.48;6.57;;;;;;;;;;4974329;28;20034;-48
2021/10/05 07:21:23;;;;;;;15.20;7.38;;;;;;;;;;4974674;28;20027;-48
2021/10/05 07:23:49;;;;;;;19.23;7.55;;;;;;;;;;4974293;28;20030;-49
2021/10/05 07:26:16;;;;;;;18.10;7.22;;;;;;;;;;4974395;28;20030;-48
2021/10/05 07:28:42;;;;;;;12.25;7.43;;;;;;;;;;4974570;28;20030;-48
2021/10/05 07:31:08;;;;;;;43.03;17.30;;;;;;;;;;4974300;28;20030;-48
2021/10/05 07:33:34;;;;;;;18.55;7.80;;;;;;;;;;4974346;28;20039;-48
2021/10/05 07:36:00;;;;;;;20.42;7.45;;;;;;;;;;4974292;28;20055;-53
2021/10/05 07:38:26;;;;;;;25.05;9.30;;;;;;;;;;4978117;28;20019;-48
2021/10/05 07:40:52;;;;;;;15.68;7.70;;;;;;;;;;4978123;28;20039;-57
2021/10/05 07:43:18;;;;;;;14.95;8.25;;;;;;;;;;4977934;28;20046;-48
2021/10/05 07:45:45;;;;;;;20.00;7.60;;;;;;;;;;4977868;28;20030;-52
2021/10/05 07:48:11;;;;;;;29.05;7.85;;;;;;;;;;4978019;28;20038;-57
2021/10/05 07:50:40;;;;;;;28.27;6.75;;;;;;;;;;4978046;28;20034;-59
2021/10/05 07:53:06;;;;;;;23.98;9.40;;;;;;;;;;4977654;28;20074;-49
2021/10/05 07:55:32;;;;;;;22.08;11.30;;;;;;;;;;4977539;28;20455;-50
2021/10/05 07:57:59;;;;;;;25.92;7.65;;;;;;;;;;4977709;28;20019;-48
2021/10/05 08:00:25;;;;;;;14.82;7.03;;;;;;;;;;4977441;28;20090;-48
2021/10/05 08:02:51;;;;;;;41.72;6.13;;;;;;;;;;4977266;28;20027;-48
2021/10/05 08:05:19;;;;;;;443.98;32.38;;;;;;;;;;4977470;28;20069;-50
2021/10/05 08:07:45;;;;;;;22.63;7.20;;;;;;;;;;4977360;28;20506;-53
2021/10/05 08:10:12;;;;;;;203.98;13.35;;;;;;;;;;4977146;28;20105;-50
2021/10/05 08:12:40;;;;;;;33.42;15.73;;;;;;;;;;4977196;28;20019;-50
2021/10/05 08:15:07;;;;;;;21.50;11.15;;;;;;;;;;4977052;28;20235;-49
2021/10/05 08:17:33;;;;;;;14.73;4.43;;;;;;;;;;4976914;28;20046;-48
2021/10/05 08:19:59;;;;;;;11.23;4.70;;;;;;;;;;4976917;28;20038;-49
2021/10/05 08:22:25;;;;;;;18.23;6.72;;;;;;;;;;4977119;28;20510;-49
2021/10/05 08:24:51;;;;;;;15.98;4.93;;;;;;;;;;4976818;28;20025;-50
2021/10/05 08:27:19;;;;;;;18.88;5.60;;;;;;;;;;4977042;28;20027;-50
2021/10/05 08:29:48;;;;;;;15.80;5.15;;;;;;;;;;4977615;28;20023;-49
2021/10/05 08:32:15;;;;;;;13.95;4.97;;;;;;;;;;4976600;28;20093;-49
2021/10/05 08:34:41;;;;;;;10.20;6.05;;;;;;;;;;4976750;28;20045;-50
2021/10/05 08:37:08;;;;;;;11.80;4.68;;;;;;;;;;4976815;28;20046;-50
2021/10/05 08:39:34;;;;;;;14.57;4.63;;;;;;;;;;4976784;28;20113;-50
2021/10/05 08:42:01;;;;;;;10.43;5.47;;;;;;;;;;4976774;28;20027;-50
2021/10/05 08:44:27;;;;;;;14.82;7.18;;;;;;;;;;4976714;28;20074;-49
2021/10/05 08:46:53;;;;;;;14.60;5.30;;;;;;;;;;4976516;28;20105;-51
2021/10/05 08:49:20;;;;;;;15.57;8.00;;;;;;;;;;4975846;28;20027;-51
2021/10/05 08:51:47;;;;;;;28.65;9.30;;;;;;;;;;4976407;28;20045;-50
2021/10/05 08:54:13;;;;;;;17.10;7.20;;;;;;;;;;4976319;28;20027;-51
2021/10/05 08:56:45;;;;;;;16.70;6.55;;;;;;;;;;4976368;28;20125;-51
2021/10/05 08:59:13;;;;;;;21.27;8.88;;;;;;;;;;4976597;28;20030;-50
2021/10/05 09:01:39;;;;;;;15.68;5.50;;;;;;;;;;4976271;28;20027;-51
2021/10/05 09:04:06;;;;;;;11.55;5.30;;;;;;;;;;4976433;28;20038;-50
2021/10/05 09:06:32;;;;;;;15.75;5.80;;;;;;;;;;4976161;28;20112;-50
2021/10/05 09:09:02;;;;;;;12.45;6.45;;;;;;;;;;4976218;28;20491;-51
2021/10/05 09:11:37;;;;;;;19.88;6.85;;;;;;;;;;4976125;28;20054;-50
2021/10/05 09:14:03;;;;;;;18.27;4.78;;;;;;;;;;4976113;28;20026;-50
2021/10/05 09:16:30;;;;;;;13.23;6.43;;;;;;;;;;4975799;28;21141;-51
2021/10/05 09:18:58;;;;;;;14.60;6.03;;;;;;;;;;4975962;28;20450;-51
2021/10/05 09:21:26;;;;;;;15.55;6.18;;;;;;;;;;4976109;28;20031;-52
2021/10/05 09:23:56;;;;;;;19.92;7.90;;;;;;;;;;4975971;28;20022;-51
2021/10/05 09:26:31;;;;;;;23.75;6.47;;;;;;;;;;4975870;28;20109;-51
2021/10/05 09:29:07;;;;;;;19.42;5.72;;;;;;;;;;4975727;28;20029;-51
2021/10/05 09:31:44;;;;;;;18.30;6.40;;;;;;;;;;4976174;28;20038;-50
2021/10/05 09:34:10;;;;;;;14.23;5.40;;;;;;;;;;4975607;28;20171;-51
2021/10/05 09:36:36;;;;;;;15.38;4.40;;;;;;;;;;4975641;28;20042;-60
2021/10/05 09:39:03;;;;;;;23.30;6.18;;;;;;;;;;4975423;28;20113;-51
2021/10/05 09:41:29;;;;;;;12.07;5.65;;;;;;;;;;4975583;28;20030;-51
2021/10/05 09:44:03;;;;;;;14.10;5.22;;;;;;;;;;4975444;28;20023;-52
2021/10/05 09:46:30;;;;;;;19.65;5.55;;;;;;;;;;4975611;28;20500;-55
2021/10/05 09:49:14;;;;;;;11.10;5.72;;;;;;;;;;4975506;28;20023;-51
2021/10/05 09:51:40;;;;;;;14.10;5.10;;;;;;;;;;4975285;28;20027;-56
2021/10/05 09:54:06;;;;;;;17.92;4.70;;;;;;;;;;4975127;28;20019;-52
2021/10/05 09:56:32;;;;;;;10.80;4.60;;;;;;;;;;4975225;28;20045;-56
2021/10/05 09:58:59;;;;;;;17.08;5.38;;;;;;;;;;4975193;28;20052;-59
2021/10/05 10:01:26;;;;;;;11.50;4.38;;;;;;;;;;4975152;28;20030;-54
2021/10/05 10:03:53;;;;;;;14.77;5.03;;;;;;;;;;4975142;28;20026;-51
2021/10/05 10:06:19;;;;;;;17.92;4.75;;;;;;;;;;4975015;28;20105;-58
2021/10/05 10:08:46;;;;;;;18.85;4.53;;;;;;;;;;4974860;28;20019;-51
2021/10/05 10:11:13;;;;;;;22.33;4.15;;;;;;;;;;4974976;28;20029;-58
2021/10/05 10:13:41;;;;;;;18.10;5.35;;;;;;;;;;4974745;28;20024;-51
2021/10/05 10:16:07;;;;;;;8.00;4.20;;;;;;;;;;4974878;28;20438;-51
2021/10/05 10:18:33;;;;;;;15.27;4.22;;;;;;;;;;4974877;28;20023;-51
2021/10/05 10:21:10;;;;;;;17.38;5.07;;;;;;;;;;4974786;28;20027;-59
2021/10/05 10:23:38;;;;;;;10.48;3.80;;;;;;;;;;4974936;28;20029;-58
2021/10/05 10:26:08;;;;;;;12.23;3.45;;;;;;;;;;4974639;28;20058;-57
2021/10/05 10:28:41;;;;;;;19.83;4.20;;;;;;;;;;4975195;28;20470;-60
2021/10/05 10:31:11;;;;;;;9.35;4.03;;;;;;;;;;4974701;28;20061;-58
2021/10/05 10:33:46;;;;;;;14.25;4.70;;;;;;;;;;4974743;28;20023;-58
2021/10/05 10:36:13;;;;;;;15.20;4.15;;;;;;;;;;4974307;28;20043;-52
2021/10/05 10:38:43;;;;;;;13.32;4.40;;;;;;;;;;4974929;28;20046;-56
2021/10/05 10:41:19;;;;;;;15.82;4.38;;;;;;;;;;4974655;28;20030;-57
2021/10/05 10:43:59;;;;;;;18.20;4.07;;;;;;;;;;4974672;28;20023;-60
2021/10/05 10:46:27;;;;;;;10.13;4.18;;;;;;;;;;4974356;28;20029;-58
2021/10/05 10:48:54;;;;;;;9.52;4.25;;;;;;;;;;4974249;28;20058;-59
2021/10/05 10:51:20;;;;;;;15.27;4.15;;;;;;;;;;4974427;28;20115;-58
2021/10/05 10:53:47;;;;;;;15.68;4.15;;;;;;;;;;4974476;28;20368;-56
2021/10/05 10:56:27;;;;;;;9.45;3.95;;;;;;;;;;4974380;28;20062;-60
2021/10/05 10:58:58;;;;;;;14.00;5.33;;;;;;;;;;4973674;28;20058;-56
2021/10/05 11:01:34;;;;;;;11.45;3.92;;;;;;;;;;4965058;28;20260;-59
2021/10/05 11:04:04;;;;;;;18.20;4.47;;;;;;;;;;4976183;28;20098;-53
2021/10/05 11:06:30;;;;;;;11.50;4.00;;;;;;;;;;4978997;28;20034;-51
2021/10/05 11:08:56;;;;;;;19.65;5.72;;;;;;;;;;4981639;28;20471;-59
2021/10/05 11:11:32;;;;;;;23.23;12.10;;;;;;;;;;4983761;28;20229;-57
2021/10/05 11:14:01;;;;;;;21.42;7.53;;;;;;;;;;4984120;28;20098;-54
2021/10/05 11:16:28;;;;;;;20.52;7.47;;;;;;;;;;4983238;28;20042;-56
2021/10/05 11:19:08;;;;;;;10.77;5.13;;;;;;;;;;4984293;28;20022;-53
2021/10/05 11:21:36;;;;;;;18.73;8.80;;;;;;;;;;4982133;28;20019;-51
2021/10/05 11:24:02;;;;;;;19.80;9.45;;;;;;;;;;4983691;28;20471;-51
2021/10/05 11:26:39;;;;;;;14.02;6.40;;;;;;;;;;4982649;28;20030;-50
2021/10/05 11:29:06;;;;;;;23.73;12.10;;;;;;;;;;4983047;28;20022;-55
2021/10/05 11:31:45;;;;;;;12.45;4.93;;;;;;;;;;4977734;28;20027;-51
2021/10/05 11:34:11;;;;;;;27.43;12.43;;;;;;;;;;4977350;28;20074;-51
2021/10/05 11:36:38;;;;;;;13.07;5.22;;;;;;;;;;4977475;28;20774;-49
2021/10/05 11:39:05;;;;;;;18.35;5.28;;;;;;;;;;4994969;28;20027;-53
2021/10/05 11:41:35;;;;;;;25.70;11.70;;;;;;;;;;4996887;28;20049;-49
2021/10/05 11:44:12;;;;;;;15.80;8.40;;;;;;;;;;4997061;28;20046;-51
2021/10/05 11:46:39;;;;;;;20.23;10.52;;;;;;;;;;4996817;28;20306;-56
2021/10/05 11:49:05;;;;;;;24.38;13.82;;;;;;;;;;4996752;28;20023;-48
2021/10/05 11:51:43;;;;;;;16.35;4.60;;;;;;;;;;4996470;28;20053;-47
2021/10/05 11:54:17;;;;;;;17.20;6.68;;;;;;;;;;4994550;28;20033;-49
2021/10/05 11:56:43;;;;;;;22.98;8.15;;;;;;;;;;4995464;28;20038;-49
2021/10/05 11:59:20;;;;;;;28.92;9.13;;;;;;;;;;4995587;28;20061;-51
2021/10/05 12:01:46;;;;;;;15.88;6.25;;;;;;;;;;4995574;28;20023;-49
2021/10/05 12:04:13;;;;;;;14.15;6.78;;;;;;;;;;4995772;28;20062;-49
2021/10/05 12:06:40;;;;;;;10.35;3.80;;;;;;;;;;4995378;28;20081;-48
2021/10/05 12:09:07;;;;;;;12.63;5.32;;;;;;;;;;4996619;28;20031;-49
2021/10/05 12:11:35;;;;;;;9.32;3.92;;;;;;;;;;4996628;28;20059;-48
2021/10/05 12:14:01;;;;;;;17.33;5.55;;;;;;;;;;4996806;28;20081;-49
2021/10/05 12:16:28;;;;;;;16.48;5.22;;;;;;;;;;4996635;28;20386;-48
2021/10/05 12:18:58;;;;;;;18.75;6.03;;;;;;;;;;4996511;28;20062;-48
2021/10/05 12:21:24;;;;;;;16.70;7.40;;;;;;;;;;4996803;28;20034;-51
2021/10/05 12:23:51;;;;;;;22.33;6.68;;;;;;;;;;4996287;28;20054;-48
2021/10/05 12:26:17;;;;;;;16.80;5.28;;;;;;;;;;4995446;28;20084;-47
2021/10/05 12:29:10;;;;;;;19.08;5.70;;;;;;;;;;4994613;28;20076;-47
2021/10/05 12:31:36;;;;;;;14.45;5.38;;;;;;;;;;4994633;28;20073;-48
2021/10/05 12:34:04;;;;;;;16.35;8.52;;;;;;;;;;4991510;28;20097;-47
2021/10/05 12:36:31;;;;;;;22.95;7.80;;;;;;;;;;4987134;28;20069;-48
2021/10/05 12:39:07;;;;;;;20.23;9.32;;;;;;;;;;4990988;28;20486;-44
2021/10/05 12:41:33;;;;;;;18.60;7.65;;;;;;;;;;4995513;28;20030;-47
2021/10/05 12:43:59;;;;;;;27.45;9.23;;;;;;;;;;4995730;28;20030;-48
2021/10/05 12:46:25;;;;;;;12.88;6.47;;;;;;;;;;4995873;28;20026;-47
2021/10/05 12:49:00;;;;;;;27.27;10.02;;;;;;;;;;4995900;28;20105;-45
2021/10/05 12:51:28;;;;;;;21.55;6.03;;;;;;;;;;4995785;28;20022;-47
2021/10/05 12:54:00;;;;;;;29.95;13.02;;;;;;;;;;4995735;28;20113;-49
2021/10/05 12:56:26;;;;;;;30.38;6.35;;;;;;;;;;4995966;28;20492;-47
2021/10/05 12:58:53;;;;;;;19.27;9.15;;;;;;;;;;4995844;28;20097;-52
2021/10/05 13:01:19;;;;;;;15.93;7.30;;;;;;;;;;4996079;28;20023;-51
2021/10/05 13:03:46;;;;;;;13.07;7.53;;;;;;;;;;4995250;28;20069;-46
2021/10/05 13:06:12;;;;;;;13.20;4.88;;;;;;;;;;4995653;28;20064;-49
2021/10/05 13:08:38;;;;;;;24.55;10.20;;;;;;;;;;4995816;28;20022;-47
2021/10/05 13:11:05;;;;;;;17.90;6.53;;;;;;;;;;4995599;28;20030;-50
2021/10/05 13:13:31;;;;;;;15.38;5.25;;;;;;;;;;4994782;28;20157;-56
2021/10/05 13:15:57;;;;;;;25.63;16.05;;;;;;;;;;4994996;28;20045;-51
2021/10/05 13:18:23;;;;;;;24.58;10.13;;;;;;;;;;4994105;28;20385;-53
2021/10/05 13:20:50;;;;;;;20.52;9.88;;;;;;;;;;4993447;28;20142;-52
2021/10/05 13:23:16;;;;;;;13.43;5.10;;;;;;;;;;4994027;28;20022;-54
2021/10/05 13:25:42;;;;;;;24.75;13.88;;;;;;;;;;4995148;28;20038;-53
2021/10/05 13:28:10;;;;;;;37.70;15.82;;;;;;;;;;4995007;28;20089;-52
2021/10/05 13:30:36;;;;;;;38.50;21.75;;;;;;;;;;4995192;28;20022;-51
2021/10/05 13:33:02;;;;;;;17.17;6.22;;;;;;;;;;4995067;28;20025;-51
2021/10/05 13:35:28;;;;;;;25.15;8.93;;;;;;;;;;4979636;28;20078;-55
2021/10/05 13:37:54;;;;;;;26.00;9.00;;;;;;;;;;4975647;28;20474;-55
2021/10/05 13:40:20;;;;;;;31.23;13.65;;;;;;;;;;4975654;28;20034;-53
2021/10/05 13:42:46;;;;;;;19.77;6.97;;;;;;;;;;4975625;28;20034;-52
2021/10/05 13:45:12;;;;;;;19.88;6.05;;;;;;;;;;4975482;28;20368;-53
2021/10/05 13:47:38;;;;;;;19.55;6.00;;;;;;;;;;4975797;28;20023;-52
2021/10/05 13:50:05;;;;;;;10.55;5.90;;;;;;;;;;4975745;28;20383;-52
2021/10/05 13:52:31;;;;;;;10.73;4.43;;;;;;;;;;4975421;28;20054;-54
2021/10/05 13:54:57;;;;;;;15.40;5.60;;;;;;;;;;4975618;28;20467;-57
2021/10/05 13:57:23;;;;;;;20.10;6.28;;;;;;;;;;4975528;28;20081;-55
2021/10/05 13:59:55;;;;;;;30.70;5.20;;;;;;;;;;4975322;28;20110;-53
2021/10/05 14:02:21;;;;;;;18.10;4.35;;;;;;;;;;4975466;28;20034;-56
2021/10/05 14:04:47;;;;;;;10.80;4.68;;;;;;;;;;4974682;28;20077;-53
2021/10/05 14:07:15;;;;;;;19.70;5.10;;;;;;;;;;4975225;28;20066;-53
2021/10/05 14:09:42;;;;;;;16.13;4.70;;;;;;;;;;4974768;28;20443;-52
2021/10/05 14:12:08;;;;;;;15.40;5.65;;;;;;;;;;4972141;28;20023;-53
2021/10/05 14:14:34;;;;;;;7.88;4.32;;;;;;;;;;4973740;28;20031;-53
2021/10/05 14:17:00;;;;;;;15.20;4.43;;;;;;;;;;4973481;28;20101;-53
2021/10/05 14:19:26;;;;;;;19.80;4.40;;;;;;;;;;4974255;28;20475;-54
2021/10/05 14:21:52;;;;;;;12.98;4.85;;;;;;;;;;4975001;28;20030;-53
2021/10/05 14:24:19;;;;;;;9.43;3.88;;;;;;;;;;4975121;28;20030;-53
2021/10/05 14:26:46;;;;;;;10.73;4.28;;;;;;;;;;4975009;28;20022;-53
2021/10/05 14:29:12;;;;;;;23.63;4.38;;;;;;;;;;4974711;28;20425;-53